sensor_id;sensor_type;location;lat;lon;timestamp;temperature;humidity
31991;DHT22;18508;49.386;8.370;2023-11-18T00:01:21;6.20;99.90
31991;DHT22;18508;49.386;8.370;2023-11-18T00:06:21;6.20;99.90
31991;DHT22;18508;49.386;8.370;2023-11-18T00:08:49;6.20;99.90
31991;DHT22;18508;49.386;8.370;2023-11-18T00:16:15;6.30;99.90
31991;DHT22;18508;49.386;8.370;2023-11-18T00:23:42;5.50;99.90
31991;DHT22;18508;49.386;8.370;2023-11-18T00:26:12;6.20;99.90
31991;DHT22;18508;49.386;8.370;2023-11-18T00:31:11;6.40;99.90
31991;DHT22;18508;49.386;8.370;2023-11-18T00:33:40;5.80;99.90
31991;DHT22;18508;49.386;8.370;2023-11-18T00:36:11;6.10;99.90
31991;DHT22;18508;49.386;8.370;2023-11-18T00:41:09;6.20;99.90
31991;DHT22;18508;49.386;8.370;2023-11-18T00:43:37;5.90;99.90
31991;DHT22;18508;49.386;8.370;2023-11-18T00:46:06;6.30;99.90
31991;DHT22;18508;49.386;8.370;2023-11-18T00:51:03;5.90;99.90
31991;DHT22;18508;49.386;8.370;2023-11-18T00:53:34;6.40;99.90
31991;DHT22;18508;49.386;8.370;2023-11-18T00:56:05;6.10;99.90
31991;DHT22;18508;49.386;8.370;2023-11-18T00:58:36;6.50;99.90
31991;DHT22;18508;49.386;8.370;2023-11-18T01:06:05;6.60;99.90
31991;DHT22;18508;49.386;8.370;2023-11-18T01:16:01;6.10;99.90
31991;DHT22;18508;49.386;8.370;2023-11-18T01:18:30;6.00;99.90
31991;DHT22;18508;49.386;8.370;2023-11-18T01:23:26;6.50;99.90
31991;DHT22;18508;49.386;8.370;2023-11-18T01:25:54;6.30;99.90
31991;DHT22;18508;49.386;8.370;2023-11-18T01:33:22;6.80;99.90
31991;DHT22;18508;49.386;8.370;2023-11-18T01:35:52;6.40;99.90
31991;DHT22;18508;49.386;8.370;2023-11-18T01:40:50;6.40;99.90
31991;DHT22;18508;49.386;8.370;2023-11-18T01:43:18;6.10;99.90
31991;DHT22;18508;49.386;8.370;2023-11-18T01:45:46;5.40;99.90
31991;DHT22;18508;49.386;8.370;2023-11-18T01:50:45;6.10;99.90
31991;DHT22;18508;49.386;8.370;2023-11-18T01:53:14;5.40;99.90
31991;DHT22;18508;49.386;8.370;2023-11-18T02:00:42;5.50;99.90
31991;DHT22;18508;49.386;8.370;2023-11-18T02:08:12;5.90;99.90
31991;DHT22;18508;49.386;8.370;2023-11-18T02:10:46;5.70;99.90
31991;DHT22;18508;49.386;8.370;2023-11-18T02:13:22;5.50;99.90
31991;DHT22;18508;49.386;8.370;2023-11-18T02:15:53;5.80;99.90
31991;DHT22;18508;49.386;8.370;2023-11-18T02:18:24;5.90;99.90
31991;DHT22;18508;49.386;8.370;2023-11-18T02:20:55;6.20;99.90
31991;DHT22;18508;49.386;8.370;2023-11-18T02:23:25;5.70;99.90
31991;DHT22;18508;49.386;8.370;2023-11-18T02:25:55;5.70;99.90
31991;DHT22;18508;49.386;8.370;2023-11-18T02:28:23;6.20;99.90
31991;DHT22;18508;49.386;8.370;2023-11-18T02:30:56;5.70;99.90
31991;DHT22;18508;49.386;8.370;2023-11-18T02:33:32;5.90;99.90
31991;DHT22;18508;49.386;8.370;2023-11-18T02:36:06;5.60;99.90
31991;DHT22;18508;49.386;8.370;2023-11-18T02:38:42;5.80;99.90
31991;DHT22;18508;49.386;8.370;2023-11-18T02:41:15;6.10;99.90
31991;DHT22;18508;49.386;8.370;2023-11-18T02:43:45;6.20;99.90
31991;DHT22;18508;49.386;8.370;2023-11-18T02:46:14;6.30;99.90
31991;DHT22;18508;49.386;8.370;2023-11-18T02:48:43;6.00;99.90
31991;DHT22;18508;49.386;8.370;2023-11-18T02:51:12;6.70;99.90
31991;DHT22;18508;49.386;8.370;2023-11-18T02:53:40;6.40;99.90
31991;DHT22;18508;49.386;8.370;2023-11-18T02:56:12;6.20;99.90
31991;DHT22;18508;49.386;8.370;2023-11-18T02:58:41;6.50;99.90
31991;DHT22;18508;49.386;8.370;2023-11-18T03:01:09;6.30;99.90
31991;DHT22;18508;49.386;8.370;2023-11-18T03:03:37;5.60;99.90
31991;DHT22;18508;49.386;8.370;2023-11-18T03:06:06;6.50;99.90
31991;DHT22;18508;49.386;8.370;2023-11-18T03:08:34;6.30;99.90
31991;DHT22;18508;49.386;8.370;2023-11-18T03:11:03;6.10;99.90
31991;DHT22;18508;49.386;8.370;2023-11-18T03:13:31;6.30;99.90
31991;DHT22;18508;49.386;8.370;2023-11-18T03:16:01;6.20;99.90
31991;DHT22;18508;49.386;8.370;2023-11-18T03:18:31;6.50;99.90
31991;DHT22;18508;49.386;8.370;2023-11-18T03:20:58;6.20;99.90
31991;DHT22;18508;49.386;8.370;2023-11-18T03:23:27;6.40;99.90
31991;DHT22;18508;49.386;8.370;2023-11-18T03:25:55;6.30;99.90
31991;DHT22;18508;49.386;8.370;2023-11-18T03:28:24;6.30;99.90
31991;DHT22;18508;49.386;8.370;2023-11-18T03:30:53;6.80;99.90
31991;DHT22;18508;49.386;8.370;2023-11-18T03:33:23;6.20;99.90
31991;DHT22;18508;49.386;8.370;2023-11-18T03:35:51;6.40;99.90
31991;DHT22;18508;49.386;8.370;2023-11-18T03:40:47;6.10;99.90
31991;DHT22;18508;49.386;8.370;2023-11-18T03:50:42;6.30;99.90
31991;DHT22;18508;49.386;8.370;2023-11-18T03:55:39;6.20;99.90
31991;DHT22;18508;49.386;8.370;2023-11-18T03:58:07;6.50;99.90
31991;DHT22;18508;49.386;8.370;2023-11-18T04:00:36;6.10;99.90
31991;DHT22;18508;49.386;8.370;2023-11-18T04:05:34;6.10;99.90
31991;DHT22;18508;49.386;8.370;2023-11-18T04:08:07;6.00;99.90
31991;DHT22;18508;49.386;8.370;2023-11-18T04:10:35;5.90;99.90
31991;DHT22;18508;49.386;8.370;2023-11-18T04:15:32;5.80;99.90
31991;DHT22;18508;49.386;8.370;2023-11-18T04:18:01;5.80;99.90
31991;DHT22;18508;49.386;8.370;2023-11-18T04:20:30;5.90;99.90
31991;DHT22;18508;49.386;8.370;2023-11-18T04:25:29;5.90;99.90
31991;DHT22;18508;49.386;8.370;2023-11-18T04:30:25;5.80;99.90
31991;DHT22;18508;49.386;8.370;2023-11-18T04:32:53;5.70;99.90
31991;DHT22;18508;49.386;8.370;2023-11-18T04:35:21;5.90;99.90
31991;DHT22;18508;49.386;8.370;2023-11-18T04:40:20;5.80;99.90
31991;DHT22;18508;49.386;8.370;2023-11-18T04:42:51;5.90;99.90
31991;DHT22;18508;49.386;8.370;2023-11-18T04:47:47;5.80;99.90
31991;DHT22;18508;49.386;8.370;2023-11-18T04:55:14;5.40;99.90
31991;DHT22;18508;49.386;8.370;2023-11-18T04:57:42;4.80;99.90
31991;DHT22;18508;49.386;8.370;2023-11-18T05:00:13;5.40;99.90
31991;DHT22;18508;49.386;8.370;2023-11-18T05:05:14;5.00;99.90
31991;DHT22;18508;49.386;8.370;2023-11-18T05:07:43;5.30;99.90
31991;DHT22;18508;49.386;8.370;2023-11-18T05:10:12;5.40;99.90
31991;DHT22;18508;49.386;8.370;2023-11-18T05:12:40;5.20;99.90
31991;DHT22;18508;49.386;8.370;2023-11-18T05:15:11;5.10;99.90
31991;DHT22;18508;49.386;8.370;2023-11-18T05:20:09;5.20;99.90
31991;DHT22;18508;49.386;8.370;2023-11-18T05:22:38;5.40;99.90
31991;DHT22;18508;49.386;8.370;2023-11-18T05:25:06;5.00;99.90
31991;DHT22;18508;49.386;8.370;2023-11-18T05:27:35;5.40;99.90
31991;DHT22;18508;49.386;8.370;2023-11-18T05:32:33;5.10;99.90
31991;DHT22;18508;49.386;8.370;2023-11-18T05:37:31;5.40;99.90
31991;DHT22;18508;49.386;8.370;2023-11-18T05:40:03;5.30;99.90
31991;DHT22;18508;49.386;8.370;2023-11-18T05:45:07;5.60;99.90
31991;DHT22;18508;49.386;8.370;2023-11-18T05:47:39;5.20;99.90
31991;DHT22;18508;49.386;8.370;2023-11-18T05:50:08;5.20;99.90
31991;DHT22;18508;49.386;8.370;2023-11-18T05:55:05;5.10;99.90
31991;DHT22;18508;49.386;8.370;2023-11-18T06:00:03;5.10;99.90
31991;DHT22;18508;49.386;8.370;2023-11-18T06:02:32;5.60;99.90
31991;DHT22;18508;49.386;8.370;2023-11-18T06:05:05;5.00;99.90
31991;DHT22;18508;49.386;8.370;2023-11-18T06:12:32;5.00;99.90
31991;DHT22;18508;49.386;8.370;2023-11-18T06:19:57;5.00;99.90
31991;DHT22;18508;49.386;8.370;2023-11-18T06:22:26;4.90;99.90
31991;DHT22;18508;49.386;8.370;2023-11-18T06:24:55;4.90;99.90
31991;DHT22;18508;49.386;8.370;2023-11-18T06:32:21;4.90;99.90
31991;DHT22;18508;49.386;8.370;2023-11-18T06:37:22;5.10;99.90
31991;DHT22;18508;49.386;8.370;2023-11-18T06:39:51;5.10;99.90
31991;DHT22;18508;49.386;8.370;2023-11-18T06:42:19;5.20;99.90
31991;DHT22;18508;49.386;8.370;2023-11-18T06:49:47;5.30;99.90
31991;DHT22;18508;49.386;8.370;2023-11-18T06:54:43;5.50;99.90
31991;DHT22;18508;49.386;8.370;2023-11-18T06:57:12;4.80;99.90
31991;DHT22;18508;49.386;8.370;2023-11-18T07:12:06;5.40;99.90
31991;DHT22;18508;49.386;8.370;2023-11-18T07:14:36;5.40;99.90
31991;DHT22;18508;49.386;8.370;2023-11-18T07:19:33;5.40;99.90
31991;DHT22;18508;49.386;8.370;2023-11-18T07:27:01;5.70;99.90
31991;DHT22;18508;49.386;8.370;2023-11-18T07:32:04;6.00;99.90
31991;DHT22;18508;49.386;8.370;2023-11-18T07:37:02;5.30;99.90
31991;DHT22;18508;49.386;8.370;2023-11-18T07:42:11;5.10;99.90
31991;DHT22;18508;49.386;8.370;2023-11-18T07:44:40;6.00;99.90
31991;DHT22;18508;49.386;8.370;2023-11-18T07:47:10;5.40;99.90
31991;DHT22;18508;49.386;8.370;2023-11-18T07:52:08;6.30;99.90
31991;DHT22;18508;49.386;8.370;2023-11-18T07:57:04;6.10;99.90
31991;DHT22;18508;49.386;8.370;2023-11-18T08:02:05;6.20;99.90
31991;DHT22;18508;49.386;8.370;2023-11-18T08:04:37;6.30;99.90
31991;DHT22;18508;49.386;8.370;2023-11-18T08:07:04;6.10;99.90
31991;DHT22;18508;49.386;8.370;2023-11-18T08:09:33;6.10;99.90
31991;DHT22;18508;49.386;8.370;2023-11-18T08:12:01;6.30;99.90
31991;DHT22;18508;49.386;8.370;2023-11-18T08:19:28;6.70;99.90
31991;DHT22;18508;49.386;8.370;2023-11-18T08:21:57;6.60;99.90
31991;DHT22;18508;49.386;8.370;2023-11-18T08:24:26;6.80;99.90
31991;DHT22;18508;49.386;8.370;2023-11-18T08:31:57;6.70;99.90
31991;DHT22;18508;49.386;8.370;2023-11-18T08:39:25;9.80;99.90
31991;DHT22;18508;49.386;8.370;2023-11-18T08:46:52;7.20;99.90
31991;DHT22;18508;49.386;8.370;2023-11-18T08:49:21;7.20;99.90
31991;DHT22;18508;49.386;8.370;2023-11-18T08:51:49;7.30;99.90
31991;DHT22;18508;49.386;8.370;2023-11-18T08:54:24;7.40;99.90
31991;DHT22;18508;49.386;8.370;2023-11-18T08:57:04;7.80;99.90
31991;DHT22;18508;49.386;8.370;2023-11-18T08:59:50;7.20;99.90
31991;DHT22;18508;49.386;8.370;2023-11-18T09:02:18;7.90;99.90
31991;DHT22;18508;49.386;8.370;2023-11-18T09:04:50;7.60;99.90
31991;DHT22;18508;49.386;8.370;2023-11-18T09:07:19;7.70;99.90
31991;DHT22;18508;49.386;8.370;2023-11-18T09:09:49;7.90;99.90
31991;DHT22;18508;49.386;8.370;2023-11-18T09:12:19;7.80;99.90
31991;DHT22;18508;49.386;8.370;2023-11-18T09:14:47;7.70;99.90
31991;DHT22;18508;49.386;8.370;2023-11-18T09:17:18;8.00;99.90
31991;DHT22;18508;49.386;8.370;2023-11-18T09:19:49;7.90;99.90
31991;DHT22;18508;49.386;8.370;2023-11-18T09:22:19;7.80;99.90
31991;DHT22;18508;49.386;8.370;2023-11-18T09:24:49;7.80;99.90
31991;DHT22;18508;49.386;8.370;2023-11-18T09:27:19;7.70;99.90
31991;DHT22;18508;49.386;8.370;2023-11-18T09:29:47;8.10;99.90
31991;DHT22;18508;49.386;8.370;2023-11-18T09:32:16;8.00;99.90
31991;DHT22;18508;49.386;8.370;2023-11-18T09:34:45;8.10;99.90
31991;DHT22;18508;49.386;8.370;2023-11-18T09:37:15;8.00;99.90
31991;DHT22;18508;49.386;8.370;2023-11-18T09:39:43;8.90;99.90
31991;DHT22;18508;49.386;8.370;2023-11-18T09:42:12;7.90;99.90
31991;DHT22;18508;49.386;8.370;2023-11-18T09:44:47;8.00;99.90
31991;DHT22;18508;49.386;8.370;2023-11-18T09:47:17;8.30;99.90
31991;DHT22;18508;49.386;8.370;2023-11-18T09:49:52;8.60;99.90
31991;DHT22;18508;49.386;8.370;2023-11-18T09:52:26;8.00;99.90
31991;DHT22;18508;49.386;8.370;2023-11-18T09:55:02;8.00;99.90
31991;DHT22;18508;49.386;8.370;2023-11-18T09:57:32;8.20;99.90
31991;DHT22;18508;49.386;8.370;2023-11-18T10:00:07;8.70;99.90
31991;DHT22;18508;49.386;8.370;2023-11-18T10:02:48;8.40;99.90
31991;DHT22;18508;49.386;8.370;2023-11-18T10:05:20;8.40;99.90
31991;DHT22;18508;49.386;8.370;2023-11-18T10:07:50;7.70;99.90
31991;DHT22;18508;49.386;8.370;2023-11-18T10:10:18;8.40;99.90
31991;DHT22;18508;49.386;8.370;2023-11-18T10:12:48;8.30;99.90
31991;DHT22;18508;49.386;8.370;2023-11-18T10:15:21;8.50;99.90
31991;DHT22;18508;49.386;8.370;2023-11-18T10:17:52;8.50;99.90
31991;DHT22;18508;49.386;8.370;2023-11-18T10:20:43;9.30;99.90
31991;DHT22;18508;49.386;8.370;2023-11-18T10:23:13;8.40;99.90
31991;DHT22;18508;49.386;8.370;2023-11-18T10:25:47;8.70;99.90
31991;DHT22;18508;49.386;8.370;2023-11-18T10:28:23;8.20;99.90
31991;DHT22;18508;49.386;8.370;2023-11-18T10:30:52;8.50;99.90
31991;DHT22;18508;49.386;8.370;2023-11-18T10:33:21;8.80;99.90
31991;DHT22;18508;49.386;8.370;2023-11-18T10:38:23;8.50;99.90
31991;DHT22;18508;49.386;8.370;2023-11-18T10:40:53;8.40;99.90
31991;DHT22;18508;49.386;8.370;2023-11-18T10:46:04;8.70;99.90
31991;DHT22;18508;49.386;8.370;2023-11-18T10:48:42;8.50;99.90
31991;DHT22;18508;49.386;8.370;2023-11-18T10:51:12;8.50;99.90
31991;DHT22;18508;49.386;8.370;2023-11-18T10:53:40;8.50;99.90
31991;DHT22;18508;49.386;8.370;2023-11-18T10:56:20;8.50;99.90
31991;DHT22;18508;49.386;8.370;2023-11-18T11:01:32;8.30;99.90
31991;DHT22;18508;49.386;8.370;2023-11-18T11:04:01;8.60;99.90
31991;DHT22;18508;49.386;8.370;2023-11-18T11:06:33;8.60;99.90
31991;DHT22;18508;49.386;8.370;2023-11-18T11:09:02;8.60;99.90
31991;DHT22;18508;49.386;8.370;2023-11-18T11:11:40;8.30;99.90
31991;DHT22;18508;49.386;8.370;2023-11-18T11:14:14;8.90;99.90
31991;DHT22;18508;49.386;8.370;2023-11-18T11:16:50;9.10;99.90
31991;DHT22;18508;49.386;8.370;2023-11-18T11:19:24;8.80;99.90
31991;DHT22;18508;49.386;8.370;2023-11-18T11:22:03;8.70;99.90
31991;DHT22;18508;49.386;8.370;2023-11-18T11:24:47;8.90;99.90
31991;DHT22;18508;49.386;8.370;2023-11-18T11:27:23;8.60;99.90
31991;DHT22;18508;49.386;8.370;2023-11-18T11:29:59;8.80;99.90
31991;DHT22;18508;49.386;8.370;2023-11-18T11:32:45;8.90;99.90
31991;DHT22;18508;49.386;8.370;2023-11-18T11:35:19;8.80;99.90
31991;DHT22;18508;49.386;8.370;2023-11-18T11:40:21;8.80;99.90
31991;DHT22;18508;49.386;8.370;2023-11-18T11:42:50;8.80;99.90
31991;DHT22;18508;49.386;8.370;2023-11-18T11:45:23;8.60;99.90
31991;DHT22;18508;49.386;8.370;2023-11-18T11:47:59;8.70;99.90
31991;DHT22;18508;49.386;8.370;2023-11-18T11:50:48;9.10;99.90
31991;DHT22;18508;49.386;8.370;2023-11-18T11:53:22;8.80;99.90
31991;DHT22;18508;49.386;8.370;2023-11-18T11:55:53;8.80;99.90
31991;DHT22;18508;49.386;8.370;2023-11-18T11:58:33;9.00;99.90
31991;DHT22;18508;49.386;8.370;2023-11-18T12:01:16;8.60;99.90
31991;DHT22;18508;49.386;8.370;2023-11-18T12:03:47;8.80;99.90
31991;DHT22;18508;49.386;8.370;2023-11-18T12:06:19;8.60;99.90
31991;DHT22;18508;49.386;8.370;2023-11-18T12:08:51;8.20;99.90
31991;DHT22;18508;49.386;8.370;2023-11-18T12:11:20;8.00;99.90
31991;DHT22;18508;49.386;8.370;2023-11-18T12:14:02;8.60;99.90
31991;DHT22;18508;49.386;8.370;2023-11-18T12:17:01;8.00;99.90
31991;DHT22;18508;49.386;8.370;2023-11-18T12:19:36;8.50;99.90
31991;DHT22;18508;49.386;8.370;2023-11-18T12:28:11;8.50;99.90
31991;DHT22;18508;49.386;8.370;2023-11-18T12:30:43;8.70;99.90
31991;DHT22;18508;49.386;8.370;2023-11-18T12:33:25;8.40;99.90
31991;DHT22;18508;49.386;8.370;2023-11-18T12:39:40;7.90;99.90
31991;DHT22;18508;49.386;8.370;2023-11-18T12:42:20;8.40;99.90
31991;DHT22;18508;49.386;8.370;2023-11-18T12:45:14;8.30;99.90
31991;DHT22;18508;49.386;8.370;2023-11-18T12:47:53;8.80;99.90
31991;DHT22;18508;49.386;8.370;2023-11-18T12:50:25;8.10;99.90
31991;DHT22;18508;49.386;8.370;2023-11-18T12:52:56;8.30;99.90
31991;DHT22;18508;49.386;8.370;2023-11-18T12:55:26;8.40;99.90
31991;DHT22;18508;49.386;8.370;2023-11-18T12:57:59;8.60;99.90
31991;DHT22;18508;49.386;8.370;2023-11-18T13:00:27;8.10;99.90
31991;DHT22;18508;49.386;8.370;2023-11-18T13:03:00;8.60;99.90
31991;DHT22;18508;49.386;8.370;2023-11-18T13:07:57;8.30;99.90
31991;DHT22;18508;49.386;8.370;2023-11-18T13:10:29;8.50;99.90
31991;DHT22;18508;49.386;8.370;2023-11-18T13:15:27;8.80;99.90
31991;DHT22;18508;49.386;8.370;2023-11-18T13:17:59;8.50;99.90
31991;DHT22;18508;49.386;8.370;2023-11-18T13:25:29;8.60;99.90
31991;DHT22;18508;49.386;8.370;2023-11-18T13:35:24;8.90;99.90
31991;DHT22;18508;49.386;8.370;2023-11-18T13:37:53;8.70;99.90
31991;DHT22;18508;49.386;8.370;2023-11-18T13:40:22;8.10;99.90
31991;DHT22;18508;49.386;8.370;2023-11-18T13:43:02;8.30;99.90
31991;DHT22;18508;49.386;8.370;2023-11-18T13:45:32;8.60;99.90
31991;DHT22;18508;49.386;8.370;2023-11-18T13:48:05;8.70;99.90
31991;DHT22;18508;49.386;8.370;2023-11-18T13:50:35;8.90;99.90
31991;DHT22;18508;49.386;8.370;2023-11-18T13:53:04;8.90;99.90
31991;DHT22;18508;49.386;8.370;2023-11-18T13:55:35;9.10;99.90
31991;DHT22;18508;49.386;8.370;2023-11-18T13:58:08;8.90;99.90
31991;DHT22;18508;49.386;8.370;2023-11-18T14:00:37;8.70;99.90
31991;DHT22;18508;49.386;8.370;2023-11-18T14:03:05;8.50;99.90
31991;DHT22;18508;49.386;8.370;2023-11-18T14:05:36;8.80;99.90
31991;DHT22;18508;49.386;8.370;2023-11-18T14:08:05;8.70;99.90
31991;DHT22;18508;49.386;8.370;2023-11-18T14:10:37;8.60;99.90
31991;DHT22;18508;49.386;8.370;2023-11-18T14:13:09;8.60;99.90
31991;DHT22;18508;49.386;8.370;2023-11-18T14:15:40;8.50;99.90
31991;DHT22;18508;49.386;8.370;2023-11-18T14:18:11;8.30;99.90
31991;DHT22;18508;49.386;8.370;2023-11-18T14:25:38;8.80;99.90
31991;DHT22;18508;49.386;8.370;2023-11-18T14:30:37;8.70;99.90
31991;DHT22;18508;49.386;8.370;2023-11-18T14:35:34;8.80;99.90
31991;DHT22;18508;49.386;8.370;2023-11-18T14:38:02;8.60;99.90
31991;DHT22;18508;49.386;8.370;2023-11-18T14:40:30;8.80;99.90
31991;DHT22;18508;49.386;8.370;2023-11-18T14:47:57;8.70;99.90
31991;DHT22;18508;49.386;8.370;2023-11-18T14:50:25;8.20;99.90
31991;DHT22;18508;49.386;8.370;2023-11-18T14:52:54;8.40;99.90
31991;DHT22;18508;49.386;8.370;2023-11-18T14:55:28;9.10;99.90
31991;DHT22;18508;49.386;8.370;2023-11-18T14:57:56;8.60;99.90
31991;DHT22;18508;49.386;8.370;2023-11-18T15:00:25;9.30;99.90
31991;DHT22;18508;49.386;8.370;2023-11-18T15:02:54;8.80;99.90
31991;DHT22;18508;49.386;8.370;2023-11-18T15:05:27;8.30;99.90
31991;DHT22;18508;49.386;8.370;2023-11-18T15:07:57;8.70;99.90
31991;DHT22;18508;49.386;8.370;2023-11-18T15:10:28;8.60;99.90
31991;DHT22;18508;49.386;8.370;2023-11-18T15:12:58;8.30;99.90
31991;DHT22;18508;49.386;8.370;2023-11-18T15:15:29;8.50;99.90
31991;DHT22;18508;49.386;8.370;2023-11-18T15:18:02;8.50;99.90
31991;DHT22;18508;49.386;8.370;2023-11-18T15:20:33;8.00;99.90
31991;DHT22;18508;49.386;8.370;2023-11-18T15:23:02;8.60;99.90
31991;DHT22;18508;49.386;8.370;2023-11-18T15:30:30;8.20;99.90
31991;DHT22;18508;49.386;8.370;2023-11-18T15:32:59;8.30;99.90
31991;DHT22;18508;49.386;8.370;2023-11-18T15:35:30;8.70;99.90
31991;DHT22;18508;49.386;8.370;2023-11-18T15:37:59;8.40;99.90
31991;DHT22;18508;49.386;8.370;2023-11-18T15:40:28;7.90;99.90
31991;DHT22;18508;49.386;8.370;2023-11-18T15:42:58;8.70;99.90
31991;DHT22;18508;49.386;8.370;2023-11-18T15:45:26;8.10;99.90
31991;DHT22;18508;49.386;8.370;2023-11-18T15:47:55;8.40;99.90
31991;DHT22;18508;49.386;8.370;2023-11-18T15:50:27;8.10;99.90
31991;DHT22;18508;49.386;8.370;2023-11-18T15:55:28;8.10;99.90
31991;DHT22;18508;49.386;8.370;2023-11-18T16:00:27;8.10;99.90
31991;DHT22;18508;49.386;8.370;2023-11-18T16:02:59;8.20;99.90
31991;DHT22;18508;49.386;8.370;2023-11-18T16:05:30;8.30;99.90
31991;DHT22;18508;49.386;8.370;2023-11-18T16:08:02;8.40;99.90
31991;DHT22;18508;49.386;8.370;2023-11-18T16:10:36;8.70;99.90
31991;DHT22;18508;49.386;8.370;2023-11-18T16:13:04;8.10;99.90
31991;DHT22;18508;49.386;8.370;2023-11-18T16:20:32;8.60;99.90
31991;DHT22;18508;49.386;8.370;2023-11-18T16:23:01;8.70;99.90
31991;DHT22;18508;49.386;8.370;2023-11-18T16:25:32;8.50;99.90
31991;DHT22;18508;49.386;8.370;2023-11-18T16:28:04;8.70;99.90
31991;DHT22;18508;49.386;8.370;2023-11-18T16:30:35;8.10;99.90
31991;DHT22;18508;49.386;8.370;2023-11-18T16:33:03;8.30;99.90
31991;DHT22;18508;49.386;8.370;2023-11-18T16:35:32;8.30;99.90
31991;DHT22;18508;49.386;8.370;2023-11-18T16:38:00;8.40;99.90
31991;DHT22;18508;49.386;8.370;2023-11-18T16:40:29;8.10;99.90
31991;DHT22;18508;49.386;8.370;2023-11-18T16:42:59;8.50;99.90
31991;DHT22;18508;49.386;8.370;2023-11-18T16:45:30;8.20;99.90
31991;DHT22;18508;49.386;8.370;2023-11-18T16:47:58;7.90;99.90
31991;DHT22;18508;49.386;8.370;2023-11-18T16:50:26;8.00;99.90
31991;DHT22;18508;49.386;8.370;2023-11-18T16:55:23;8.80;99.90
31991;DHT22;18508;49.386;8.370;2023-11-18T17:00:21;7.80;99.90
31991;DHT22;18508;49.386;8.370;2023-11-18T17:02:52;8.10;99.90
31991;DHT22;18508;49.386;8.370;2023-11-18T17:05:25;7.80;99.90
31991;DHT22;18508;49.386;8.370;2023-11-18T17:07:55;8.30;99.90
31991;DHT22;18508;49.386;8.370;2023-11-18T17:10:24;8.30;99.90
31991;DHT22;18508;49.386;8.370;2023-11-18T17:12:52;7.70;99.90
31991;DHT22;18508;49.386;8.370;2023-11-18T17:15:20;8.50;99.90
31991;DHT22;18508;49.386;8.370;2023-11-18T17:17:49;8.20;99.90
31991;DHT22;18508;49.386;8.370;2023-11-18T17:20:22;7.50;99.90
31991;DHT22;18508;49.386;8.370;2023-11-18T17:22:50;7.80;99.90
31991;DHT22;18508;49.386;8.370;2023-11-18T17:25:19;8.00;99.90
31991;DHT22;18508;49.386;8.370;2023-11-18T17:27:50;7.80;99.90
31991;DHT22;18508;49.386;8.370;2023-11-18T17:30:20;7.80;99.90
31991;DHT22;18508;49.386;8.370;2023-11-18T17:32:49;8.10;99.90
31991;DHT22;18508;49.386;8.370;2023-11-18T17:37:50;8.00;99.90
31991;DHT22;18508;49.386;8.370;2023-11-18T17:42:48;8.10;99.90
31991;DHT22;18508;49.386;8.370;2023-11-18T17:45:20;7.50;99.90
31991;DHT22;18508;49.386;8.370;2023-11-18T17:47:51;8.20;99.90
31991;DHT22;18508;49.386;8.370;2023-11-18T17:55:19;8.00;99.90
31991;DHT22;18508;49.386;8.370;2023-11-18T17:57:47;8.00;99.90
31991;DHT22;18508;49.386;8.370;2023-11-18T18:00:16;8.40;99.90
31991;DHT22;18508;49.386;8.370;2023-11-18T18:02:50;8.20;99.90
31991;DHT22;18508;49.386;8.370;2023-11-18T18:10:20;8.00;99.90
31991;DHT22;18508;49.386;8.370;2023-11-18T18:12:54;7.90;99.90
31991;DHT22;18508;49.386;8.370;2023-11-18T18:15:22;8.00;99.90
31991;DHT22;18508;49.386;8.370;2023-11-18T18:20:22;7.90;99.90
31991;DHT22;18508;49.386;8.370;2023-11-18T18:25:20;8.50;99.90
31991;DHT22;18508;49.386;8.370;2023-11-18T18:27:48;8.30;99.90
31991;DHT22;18508;49.386;8.370;2023-11-18T18:30:17;8.10;99.90
31991;DHT22;18508;49.386;8.370;2023-11-18T18:32:45;8.40;99.90
31991;DHT22;18508;49.386;8.370;2023-11-18T18:35:17;8.00;99.90
31991;DHT22;18508;49.386;8.370;2023-11-18T18:37:46;8.10;99.90
31991;DHT22;18508;49.386;8.370;2023-11-18T18:40:15;7.90;99.90
31991;DHT22;18508;49.386;8.370;2023-11-18T18:42:49;7.90;99.90
31991;DHT22;18508;49.386;8.370;2023-11-18T18:45:17;8.20;99.90
31991;DHT22;18508;49.386;8.370;2023-11-18T18:50:15;7.80;99.90
31991;DHT22;18508;49.386;8.370;2023-11-18T18:55:13;8.30;99.90
31991;DHT22;18508;49.386;8.370;2023-11-18T19:00:12;8.00;99.90
31991;DHT22;18508;49.386;8.370;2023-11-18T19:07:40;8.10;99.90
31991;DHT22;18508;49.386;8.370;2023-11-18T19:10:09;8.00;99.90
31991;DHT22;18508;49.386;8.370;2023-11-18T19:12:38;7.90;99.90
31991;DHT22;18508;49.386;8.370;2023-11-18T19:15:07;8.10;99.90
31991;DHT22;18508;49.386;8.370;2023-11-18T19:17:37;7.70;99.90
31991;DHT22;18508;49.386;8.370;2023-11-18T19:20:08;7.20;99.90
31991;DHT22;18508;49.386;8.370;2023-11-18T19:22:41;8.10;99.90
31991;DHT22;18508;49.386;8.370;2023-11-18T19:30:11;8.20;99.90
31991;DHT22;18508;49.386;8.370;2023-11-18T19:32:41;8.10;99.90
31991;DHT22;18508;49.386;8.370;2023-11-18T19:37:41;7.90;99.90
31991;DHT22;18508;49.386;8.370;2023-11-18T19:40:10;7.70;99.90
31991;DHT22;18508;49.386;8.370;2023-11-18T19:42:39;8.00;99.90
31991;DHT22;18508;49.386;8.370;2023-11-18T19:45:07;8.10;99.90
31991;DHT22;18508;49.386;8.370;2023-11-18T19:47:35;8.50;99.90
31991;DHT22;18508;49.386;8.370;2023-11-18T19:50:06;8.50;99.90
31991;DHT22;18508;49.386;8.370;2023-11-18T19:52:35;8.30;99.90
31991;DHT22;18508;49.386;8.370;2023-11-18T19:55:04;8.10;99.90
31991;DHT22;18508;49.386;8.370;2023-11-18T19:57:33;8.10;99.90
31991;DHT22;18508;49.386;8.370;2023-11-18T20:00:02;8.10;99.90
31991;DHT22;18508;49.386;8.370;2023-11-18T20:02:32;7.90;99.90
31991;DHT22;18508;49.386;8.370;2023-11-18T20:07:31;8.10;99.90
31991;DHT22;18508;49.386;8.370;2023-11-18T20:12:28;8.40;99.90
31991;DHT22;18508;49.386;8.370;2023-11-18T20:22:24;8.10;99.90
31991;DHT22;18508;49.386;8.370;2023-11-18T20:24:54;8.20;99.90
31991;DHT22;18508;49.386;8.370;2023-11-18T20:27:22;8.00;99.90
31991;DHT22;18508;49.386;8.370;2023-11-18T20:29:50;8.50;99.90
31991;DHT22;18508;49.386;8.370;2023-11-18T20:32:18;8.20;99.90
31991;DHT22;18508;49.386;8.370;2023-11-18T20:34:46;8.10;99.90
31991;DHT22;18508;49.386;8.370;2023-11-18T20:42:13;8.50;99.90
31991;DHT22;18508;49.386;8.370;2023-11-18T20:44:41;8.30;99.90
31991;DHT22;18508;49.386;8.370;2023-11-18T20:47:09;7.90;99.90
31991;DHT22;18508;49.386;8.370;2023-11-18T20:49:37;8.60;99.90
31991;DHT22;18508;49.386;8.370;2023-11-18T20:52:05;8.10;99.90
31991;DHT22;18508;49.386;8.370;2023-11-18T20:54:36;8.80;99.90
31991;DHT22;18508;49.386;8.370;2023-11-18T20:57:04;7.90;99.90
31991;DHT22;18508;49.386;8.370;2023-11-18T20:59:33;8.10;99.90
31991;DHT22;18508;49.386;8.370;2023-11-18T21:02:02;8.50;99.90
31991;DHT22;18508;49.386;8.370;2023-11-18T21:04:30;8.40;99.90
31991;DHT22;18508;49.386;8.370;2023-11-18T21:06:59;8.70;99.90
31991;DHT22;18508;49.386;8.370;2023-11-18T21:09:27;8.40;99.90
31991;DHT22;18508;49.386;8.370;2023-11-18T21:11:55;8.30;99.90
31991;DHT22;18508;49.386;8.370;2023-11-18T21:14:47;8.00;99.90
31991;DHT22;18508;49.386;8.370;2023-11-18T21:17:16;8.40;99.90
31991;DHT22;18508;49.386;8.370;2023-11-18T21:29:42;8.50;99.90